createdAt,value
2023-05-16T00:07:31.933Z,97.64
2023-05-16T00:22:32.190Z,95.54
2023-05-16T00:37:32.376Z,93.45
2023-05-16T00:52:32.551Z,90.38
2023-05-16T01:07:32.604Z,86.55
2023-05-16T01:22:32.876Z,86.65
2023-05-16T01:37:33.042Z,89.25
2023-05-16T01:52:33.285Z,89.26
2023-05-16T02:07:33.479Z,86.38
2023-05-16T02:22:33.432Z,87.04
2023-05-16T02:37:33.740Z,89.35
2023-05-16T02:52:34.098Z,89.80
2023-05-16T03:07:34.189Z,90.58
2023-05-16T03:22:35.412Z,91.50
2023-05-16T03:37:35.694Z,93.09
2023-05-16T03:52:35.840Z,94.62
2023-05-16T04:07:36.073Z,94.67
2023-05-16T04:22:36.246Z,94.87
2023-05-16T04:37:37.879Z,96.14
2023-05-16T04:52:47.524Z,97.57
2023-05-16T05:07:47.751Z,98.13
2023-05-16T05:22:48.606Z,98.70
2023-05-16T05:37:48.736Z,99.99
2023-05-16T05:52:49.352Z,99.99
2023-05-16T06:07:49.548Z,99.99
2023-05-16T06:22:49.683Z,99.99
2023-05-16T06:37:49.929Z,99.99
2023-05-16T06:52:50.117Z,99.99
2023-05-16T07:07:50.282Z,97.86
2023-05-16T07:22:50.501Z,96.54
2023-05-16T07:37:50.684Z,95.57
2023-05-16T07:52:50.940Z,95.87
2023-05-16T08:07:51.104Z,94.50
2023-05-16T08:22:51.454Z,92.52
2023-05-16T08:37:51.941Z,89.63
2023-05-16T08:52:52.368Z,89.73
2023-05-16T09:08:23.155Z,88.10
2023-05-16T09:23:23.880Z,88.87
2023-05-16T09:38:35.485Z,89.07
2023-05-16T09:53:36.171Z,89.53
2023-05-16T10:08:38.869Z,91.81
2023-05-16T10:23:39.959Z,90.44
2023-05-16T10:38:41.350Z,87.67
2023-05-16T10:53:41.370Z,81.88
2023-05-16T11:08:41.618Z,79.90
2023-05-16T11:23:41.648Z,77.05
2023-05-16T11:38:42.699Z,70.05
2023-05-16T11:53:44.241Z,68.06
2023-05-16T12:08:45.834Z,66.15
2023-05-16T12:23:46.527Z,60.88
2023-05-16T12:38:47.999Z,61.72
2023-05-16T12:54:09.801Z,61.82
2023-05-16T13:09:05.022Z,57.81
2023-05-16T13:24:06.185Z,55.66
2023-05-16T13:39:06.406Z,51.67
2023-05-16T13:54:06.416Z,45.56
2023-05-16T14:09:06.883Z,49.57
2023-05-16T14:24:07.540Z,49.91
2023-05-16T14:39:08.153Z,47.50
2023-05-16T14:54:09.087Z,43.91
2023-05-16T15:09:09.587Z,42.13
2023-05-16T15:24:09.696Z,40.16
2023-05-16T15:39:10.050Z,41.71
2023-05-16T15:54:09.770Z,44.06
2023-05-16T16:09:10.438Z,41.30
2023-05-16T16:24:10.473Z,40.43
2023-05-16T16:39:10.597Z,40.73
2023-05-16T16:54:10.701Z,46.00
2023-05-16T17:09:10.829Z,49.69
2023-05-16T17:24:11.593Z,53.90
2023-05-16T17:39:11.776Z,54.71
2023-05-16T17:54:12.288Z,56.29
2023-05-16T18:09:12.498Z,59.62
2023-05-16T18:24:14.183Z,59.98
2023-05-16T18:39:14.840Z,59.45
2023-05-16T18:54:14.772Z,62.80
2023-05-16T19:09:15.004Z,64.22
2023-05-16T19:24:14.900Z,66.86
2023-05-16T19:39:15.350Z,69.45
2023-05-16T19:54:15.697Z,71.77
2023-05-16T20:09:16.266Z,72.61
2023-05-16T20:24:17.237Z,73.95
2023-05-16T20:39:17.466Z,75.29
2023-05-16T20:54:17.808Z,77.86
2023-05-16T21:09:25.133Z,80.40
2023-05-16T21:24:26.020Z,82.74
2023-05-16T21:39:26.672Z,84.36
2023-05-16T21:54:27.152Z,86.05
2023-05-16T22:09:27.557Z,88.02
2023-05-16T22:24:27.648Z,90.49
2023-05-16T22:39:28.697Z,90.89
2023-05-16T22:54:29.685Z,90.93
2023-05-16T23:09:29.910Z,94.32
2023-05-16T23:24:30.111Z,96.76
2023-05-16T23:39:30.569Z,99.18
2023-05-16T23:54:30.963Z,99.86
